Rock Springs, Arizona
Current Conditions -  °F | °C
As of 6:53 AM on Tuesday 21 Oct 2014 (Local Time) from KDVT Reporting Station
Clear Clear  
Wind Chill: 68°   Ceiling: Unl
Heat Index: 68°   Visibility: 10mi
Dew Point: 49°   Wind: 3mph
Humidity: 50%   Direction: NA
Pressure: 29.88"   Gusts: NA
Location:  34.1207°N, 112.159°W
Report Text: KDVT 211353Z VRB03KT 10SM CLR 20/09 A2988 RMK AO2 SLP100 T02000094
Loading
Personal Weather Stations






























Interactive Weather Map
Tropical Storm Tracking
New forecast layout! Learn more

10-Day Weather Forecast

Advertisements
Track Severe Weather on mobile